Lago Vista, Texas
Current Conditions -  °F | °C
As of 6:35 PM on Sunday 25 Jan 2015 (Local Time) from KRYW Reporting Station
Clear Clear  
Wind Chill: 61°   Ceiling: Unl
Heat Index: 61°   Visibility: 10mi
Dew Point: 27°   Wind: 8mph
Humidity: 28%   Direction: 300°WNW
Pressure: 30.16"   Gusts: 16mph
Location:  30.4521°N, 97.9683°W
Report Text: KRYW 260035Z AUTO 30007G14KT 10SM CLR 16/M03 A3016 RMK AO2 T01621026
Loading
Personal Weather Stations






























Interactive Weather Map New forecast layout! Learn more

10-Day Weather Forecast

Advertisements
Track Severe Weather on mobile